createdAt,value
2023-04-23T00:00:36.546Z,7.20
2023-04-23T00:03:10.315Z,8.10
2023-04-23T00:05:38.860Z,9.70
2023-04-23T00:08:07.552Z,7.57
2023-04-23T00:10:35.614Z,9.87
2023-04-23T00:13:04.172Z,6.27
2023-04-23T00:15:33.990Z,6.63
2023-04-23T00:18:01.728Z,9.60
2023-04-23T00:20:29.453Z,6.97
2023-04-23T00:22:57.528Z,8.00
2023-04-23T00:25:25.206Z,7.13
2023-04-23T00:27:52.922Z,7.03
2023-04-23T00:30:20.813Z,8.77
2023-04-23T00:32:49.966Z,7.17
2023-04-23T00:35:18.456Z,6.60
2023-04-23T00:37:46.233Z,10.77
2023-04-23T00:40:14.579Z,10.07
2023-04-23T00:42:42.480Z,8.87
2023-04-23T00:45:12.197Z,10.10
2023-04-23T00:47:41.805Z,7.77
2023-04-23T00:50:11.523Z,7.33
2023-04-23T00:52:40.683Z,7.87
2023-04-23T00:55:09.440Z,8.47
2023-04-23T00:57:38.524Z,8.37
2023-04-23T01:00:07.947Z,8.03
2023-04-23T01:02:36.526Z,7.10
2023-04-23T01:05:06.640Z,7.80
2023-04-23T01:07:36.668Z,7.90
2023-04-23T01:10:05.656Z,8.87
2023-04-23T01:12:34.149Z,7.90
2023-04-23T01:15:02.016Z,9.73
2023-04-23T01:17:29.908Z,10.77
2023-04-23T01:19:58.033Z,7.53
2023-04-23T01:22:27.150Z,9.02
2023-04-23T01:24:55.750Z,7.27
2023-04-23T01:27:24.869Z,8.80
2023-04-23T01:29:53.112Z,9.17
2023-04-23T01:32:21.621Z,8.90
2023-04-23T01:34:50.011Z,8.40
2023-04-23T01:37:18.278Z,8.00
2023-04-23T01:39:47.330Z,9.27
2023-04-23T01:42:15.052Z,7.20
2023-04-23T01:44:43.066Z,8.47
2023-04-23T01:47:11.102Z,7.50
2023-04-23T01:49:38.945Z,7.80
2023-04-23T01:52:06.657Z,9.53
2023-04-23T01:54:34.393Z,8.03
2023-04-23T01:57:03.853Z,11.57
2023-04-23T01:59:31.650Z,7.50
2023-04-23T02:01:59.461Z,8.93
2023-04-23T02:04:28.141Z,7.83
2023-04-23T02:06:55.970Z,8.30
2023-04-23T02:09:23.752Z,9.07
2023-04-23T02:11:51.545Z,15.90
2023-04-23T02:14:20.879Z,7.13
2023-04-23T02:16:49.604Z,8.93
2023-04-23T02:19:17.847Z,7.83
2023-04-23T02:21:45.637Z,7.53
2023-04-23T02:24:13.391Z,7.10
2023-04-23T02:26:41.102Z,9.23
2023-04-23T02:29:08.828Z,10.07
2023-04-23T02:31:37.953Z,7.73
2023-04-23T02:34:05.786Z,8.33
2023-04-23T02:36:33.494Z,9.30
2023-04-23T02:39:01.227Z,7.23
2023-04-23T02:41:28.988Z,8.10
2023-04-23T02:43:56.715Z,7.03
2023-04-23T02:46:24.430Z,7.60
2023-04-23T02:48:53.512Z,7.43
2023-04-23T02:51:21.271Z,9.97
2023-04-23T02:53:48.985Z,9.57
2023-04-23T02:56:16.692Z,7.37
2023-04-23T02:58:44.481Z,7.03
2023-04-23T03:01:12.229Z,8.30
2023-04-23T03:03:40.587Z,8.20
2023-04-23T03:06:09.865Z,9.03
2023-04-23T03:08:37.596Z,8.50
2023-04-23T03:11:05.311Z,7.77
2023-04-23T03:13:33.044Z,7.40
2023-04-23T03:16:00.896Z,8.57
2023-04-23T03:18:28.706Z,9.20
2023-04-23T03:20:56.461Z,11.70
2023-04-23T03:23:25.709Z,7.90
2023-04-23T03:25:53.410Z,9.40
2023-04-23T03:28:21.146Z,8.70
2023-04-23T03:30:49.081Z,9.10
2023-04-23T03:33:16.833Z,7.57
2023-04-23T03:35:44.757Z,8.97
2023-04-23T03:38:12.478Z,10.43
2023-04-23T03:40:41.590Z,9.70
2023-04-23T03:43:09.346Z,8.50
2023-04-23T03:45:37.245Z,8.87
2023-04-23T03:48:05.439Z,9.60
2023-04-23T03:50:34.395Z,9.27
2023-04-23T03:53:02.338Z,9.60
2023-04-23T03:55:30.063Z,8.33
2023-04-23T03:58:01.592Z,9.77
2023-04-23T04:00:29.526Z,9.37
2023-04-23T04:02:57.431Z,10.23
2023-04-23T04:05:25.465Z,10.77
2023-04-23T04:07:53.290Z,9.30
2023-04-23T04:10:22.423Z,10.80
2023-04-23T04:12:50.410Z,12.20
2023-04-23T04:15:20.743Z,11.20
2023-04-23T04:17:49.020Z,11.57
2023-04-23T04:20:16.840Z,11.97
2023-04-23T04:22:44.565Z,13.33
2023-04-23T04:25:12.397Z,13.90
2023-04-23T04:27:41.368Z,15.50
2023-04-23T04:30:10.860Z,12.90
2023-04-23T04:32:40.427Z,11.90
2023-04-23T04:35:09.740Z,14.20
2023-04-23T04:37:37.437Z,15.30
2023-04-23T04:40:08.219Z,14.10
2023-04-23T04:42:36.247Z,15.40
2023-04-23T04:45:04.507Z,13.97
2023-04-23T04:47:32.293Z,18.83
2023-04-23T04:50:01.342Z,14.80
2023-04-23T04:52:29.049Z,16.90
2023-04-23T04:54:56.762Z,15.03
2023-04-23T04:57:24.569Z,13.40
2023-04-23T04:59:52.288Z,13.40
2023-04-23T05:02:21.565Z,14.60
2023-04-23T05:04:49.808Z,14.20
2023-04-23T05:07:18.855Z,13.73
2023-04-23T05:09:46.637Z,12.87
2023-04-23T05:12:14.359Z,14.63
2023-04-23T05:14:42.210Z,16.17
2023-04-23T05:17:10.168Z,15.33
2023-04-23T05:19:37.888Z,13.93
2023-04-23T05:22:05.828Z,14.23
2023-04-23T05:24:34.883Z,15.33
2023-04-23T05:27:02.629Z,13.97
2023-04-23T05:29:30.350Z,15.40
2023-04-23T05:31:58.159Z,16.20
2023-04-23T05:34:25.901Z,15.00
2023-04-23T05:36:53.652Z,17.77
2023-04-23T05:39:21.395Z,16.73
2023-04-23T05:41:50.512Z,16.10
2023-04-23T05:44:20.441Z,16.80
2023-04-23T05:46:48.145Z,17.67
2023-04-23T05:49:16.077Z,18.90
2023-04-23T05:51:45.417Z,17.00
2023-04-23T05:54:14.340Z,15.20
2023-04-23T05:56:42.022Z,14.97
2023-04-23T05:59:11.303Z,12.77
2023-04-23T06:01:39.114Z,13.63
2023-04-23T06:04:07.065Z,12.90
2023-04-23T06:06:35.010Z,12.77
2023-04-23T06:09:02.767Z,12.37
2023-04-23T06:11:32.049Z,14.63
2023-04-23T06:13:59.846Z,16.57
2023-04-23T06:16:29.495Z,15.20
2023-04-23T06:18:57.571Z,16.43
2023-04-23T06:21:25.591Z,16.77
2023-04-23T06:23:53.300Z,17.53
2023-04-23T06:26:21.018Z,17.73
2023-04-23T06:28:48.724Z,16.43
2023-04-23T06:31:16.584Z,18.60
2023-04-23T06:33:45.710Z,18.70
2023-04-23T06:36:14.660Z,18.67
2023-04-23T06:38:42.407Z,19.43
2023-04-23T06:41:10.176Z,21.13
2023-04-23T06:43:37.875Z,29.33
2023-04-23T06:46:05.648Z,23.07
2023-04-23T06:48:33.660Z,21.47
2023-04-23T06:51:02.921Z,22.47
2023-04-23T06:53:30.643Z,23.07
2023-04-23T06:55:58.363Z,22.70
2023-04-23T06:58:31.098Z,26.10
2023-04-23T07:01:00.765Z,25.23
2023-04-23T07:03:29.188Z,24.50
2023-04-23T07:05:57.007Z,26.30
2023-04-23T07:08:26.135Z,26.57
2023-04-23T07:10:54.211Z,28.60
2023-04-23T07:13:21.922Z,27.73
2023-04-23T07:15:49.810Z,30.50
2023-04-23T07:18:17.710Z,30.37
2023-04-23T07:20:45.441Z,30.33
2023-04-23T07:23:13.287Z,30.57
2023-04-23T07:25:42.331Z,29.13
2023-04-23T07:28:10.177Z,31.77
2023-04-23T07:30:37.986Z,29.47
2023-04-23T07:33:05.774Z,32.37
2023-04-23T07:35:33.534Z,30.27
2023-04-23T07:38:01.253Z,31.00
2023-04-23T07:40:30.169Z,35.87
2023-04-23T07:42:59.630Z,30.00
2023-04-23T07:45:27.429Z,30.53
2023-04-23T07:47:55.145Z,29.57
2023-04-23T07:50:23.065Z,30.80
2023-04-23T07:52:50.824Z,31.53
2023-04-23T07:55:20.260Z,26.57
2023-04-23T07:57:47.945Z,26.93
2023-04-23T08:00:19.031Z,26.30
2023-04-23T08:02:48.203Z,25.63
2023-04-23T08:05:16.223Z,24.60
2023-04-23T08:07:43.972Z,21.50
2023-04-23T08:10:11.876Z,17.03
2023-04-23T08:12:39.654Z,12.13
2023-04-23T08:15:08.263Z,12.50
2023-04-23T08:17:37.540Z,12.53
2023-04-23T08:20:07.356Z,9.40
2023-04-23T08:22:35.161Z,9.67
2023-04-23T08:25:02.902Z,8.17
2023-04-23T08:27:30.851Z,8.50
2023-04-23T08:29:58.642Z,7.77
2023-04-23T08:32:26.414Z,10.57
2023-04-23T08:34:55.546Z,9.33
2023-04-23T08:37:31.044Z,8.40
2023-04-23T08:39:59.449Z,8.80
2023-04-23T08:42:38.172Z,17.77
2023-04-23T08:45:07.388Z,7.00
2023-04-23T08:47:36.757Z,7.27
2023-04-23T08:50:07.015Z,8.13
2023-04-23T08:52:36.061Z,7.57
2023-04-23T08:55:12.499Z,7.57
2023-04-23T08:57:41.703Z,7.70
2023-04-23T09:00:11.527Z,7.37
2023-04-23T09:02:42.014Z,8.83
2023-04-23T09:05:12.582Z,8.37
2023-04-23T09:07:41.628Z,6.67
2023-04-23T09:10:12.486Z,9.27
2023-04-23T09:12:42.563Z,7.37
2023-04-23T09:15:12.587Z,7.60
2023-04-23T09:17:43.793Z,7.47
2023-04-23T09:20:15.117Z,8.33
2023-04-23T09:22:46.574Z,8.47
2023-04-23T09:25:16.499Z,6.90
2023-04-23T09:27:45.105Z,9.33
2023-04-23T09:30:13.678Z,9.00
2023-04-23T09:32:43.054Z,8.50
2023-04-23T09:35:15.027Z,8.80
2023-04-23T09:37:44.955Z,7.60
2023-04-23T09:40:15.216Z,7.23
2023-04-23T09:42:50.761Z,8.50
2023-04-23T09:45:18.766Z,7.00
2023-04-23T09:47:51.045Z,10.87
2023-04-23T09:50:20.520Z,7.13
2023-04-23T09:52:56.198Z,8.43
2023-04-23T09:55:30.650Z,7.17
2023-04-23T09:57:59.585Z,8.30
2023-04-23T10:00:30.616Z,6.70
2023-04-23T10:03:01.482Z,5.70
2023-04-23T10:05:37.275Z,7.53
2023-04-23T10:08:14.282Z,8.53
2023-04-23T10:13:13.676Z,7.30
2023-04-23T10:15:41.527Z,6.80
2023-04-23T10:18:09.560Z,6.93
2023-04-23T10:20:38.646Z,7.57
2023-04-23T10:23:07.348Z,6.57
2023-04-23T10:25:35.902Z,6.63
2023-04-23T10:28:04.777Z,7.67
2023-04-23T10:30:33.230Z,6.57
2023-04-23T10:33:02.269Z,6.83
2023-04-23T10:35:30.237Z,6.73
2023-04-23T10:37:59.720Z,6.60
2023-04-23T10:40:33.212Z,6.03
2023-04-23T10:43:01.667Z,7.03
2023-04-23T10:45:32.437Z,6.33
2023-04-23T10:48:00.607Z,7.07
2023-04-23T10:50:30.375Z,7.53
2023-04-23T10:52:59.634Z,5.60
2023-04-23T10:55:29.509Z,6.10
2023-04-23T10:58:02.953Z,7.10
2023-04-23T11:00:45.754Z,7.03
2023-04-23T11:03:33.946Z,10.00
2023-04-23T11:06:03.320Z,5.40
2023-04-23T11:08:33.396Z,6.40
2023-04-23T11:11:02.465Z,6.50
2023-04-23T11:13:30.853Z,5.77
2023-04-23T11:16:14.858Z,5.80
2023-04-23T11:19:03.519Z,6.33
2023-04-23T11:22:00.849Z,6.40
2023-04-23T11:24:32.016Z,6.53
2023-04-23T11:27:01.173Z,6.30
2023-04-23T11:29:29.418Z,5.27
2023-04-23T11:32:10.327Z,6.40
2023-04-23T11:34:39.977Z,5.70
2023-04-23T11:37:10.970Z,6.80
2023-04-23T11:39:40.631Z,6.53
2023-04-23T11:42:11.024Z,5.53
2023-04-23T11:44:39.737Z,6.73
2023-04-23T11:47:14.978Z,6.00
2023-04-23T11:49:44.894Z,5.80
2023-04-23T11:52:13.699Z,7.10
2023-04-23T11:54:42.571Z,6.33
2023-04-23T11:57:10.950Z,6.10
2023-04-23T11:59:38.823Z,6.07
2023-04-23T12:02:06.602Z,5.73
2023-04-23T12:04:40.349Z,5.80
2023-04-23T12:07:19.662Z,5.40
2023-04-23T12:09:53.811Z,5.30
2023-04-23T12:12:21.913Z,7.77
2023-04-23T12:14:49.667Z,5.73
2023-04-23T12:17:22.213Z,6.97
2023-04-23T12:19:51.546Z,5.60
2023-04-23T12:22:27.152Z,5.20
2023-04-23T12:24:55.369Z,6.27
2023-04-23T12:27:23.766Z,5.40
2023-04-23T12:30:00.915Z,6.40
2023-04-23T12:32:28.663Z,5.80
2023-04-23T12:34:58.120Z,6.37
2023-04-23T12:37:27.391Z,5.40
2023-04-23T12:39:56.782Z,7.37
2023-04-23T12:42:24.961Z,6.00
2023-04-23T12:44:55.557Z,5.37
2023-04-23T12:47:23.648Z,5.30
2023-04-23T12:49:53.341Z,7.13
2023-04-23T12:52:22.868Z,6.07
2023-04-23T12:54:52.638Z,7.73
2023-04-23T12:57:23.140Z,5.27
2023-04-23T12:59:54.732Z,6.23
2023-04-23T13:02:23.111Z,6.00
2023-04-23T13:04:50.956Z,6.30
2023-04-23T13:07:18.827Z,6.00
2023-04-23T13:09:47.963Z,5.57
2023-04-23T13:12:15.755Z,5.40
2023-04-23T13:14:43.449Z,5.00
2023-04-23T13:17:11.284Z,5.57
2023-04-23T13:19:39.784Z,5.30
2023-04-23T13:22:07.967Z,5.40
2023-04-23T13:24:36.000Z,5.80
2023-04-23T13:27:10.683Z,5.20
2023-04-23T13:29:40.240Z,6.53
2023-04-23T13:32:08.340Z,6.07
2023-04-23T13:34:36.072Z,5.17
2023-04-23T13:37:05.754Z,5.57
2023-04-23T13:39:33.544Z,6.47
2023-04-23T13:42:08.929Z,5.33
2023-04-23T13:44:38.889Z,6.90
2023-04-23T13:47:07.170Z,6.10
2023-04-23T13:49:35.067Z,8.67
2023-04-23T13:52:06.534Z,5.93
2023-04-23T13:54:35.493Z,5.77
2023-04-23T13:57:03.627Z,6.10
2023-04-23T13:59:31.441Z,10.23
2023-04-23T14:02:00.888Z,6.60
2023-04-23T14:04:31.589Z,6.33
2023-04-23T14:06:59.349Z,5.50
2023-04-23T14:09:27.278Z,5.90
2023-04-23T14:11:55.046Z,6.17
2023-04-23T14:14:22.795Z,5.70
2023-04-23T14:16:50.958Z,5.93
2023-04-23T14:19:19.991Z,6.23
2023-04-23T14:21:47.828Z,8.60
2023-04-23T14:24:19.435Z,5.37
2023-04-23T14:26:49.854Z,6.17
2023-04-23T14:29:26.399Z,7.70
2023-04-23T14:31:54.221Z,5.90
2023-04-23T14:34:23.459Z,5.40
2023-04-23T14:36:53.147Z,9.30
2023-04-23T14:39:23.084Z,7.80
2023-04-23T14:41:50.773Z,5.50
2023-04-23T14:44:18.557Z,6.20
2023-04-23T14:46:46.365Z,6.43
2023-04-23T14:49:14.239Z,5.80
2023-04-23T14:51:43.269Z,7.90
2023-04-23T14:54:11.250Z,14.20
2023-04-23T14:56:39.075Z,6.63
2023-04-23T14:59:06.780Z,6.03
2023-04-23T15:01:37.695Z,5.90
2023-04-23T15:04:05.592Z,5.83
2023-04-23T15:06:34.658Z,5.67
2023-04-23T15:09:03.731Z,6.00
2023-04-23T15:11:32.833Z,8.50
2023-04-23T15:14:04.519Z,6.40
2023-04-23T15:19:06.757Z,7.13
2023-04-23T15:21:34.572Z,6.20
2023-04-23T15:24:03.590Z,7.07
2023-04-23T15:26:32.654Z,6.30
2023-04-23T15:29:00.845Z,8.33
2023-04-23T15:31:28.678Z,6.13
2023-04-23T15:33:56.780Z,6.37
2023-04-23T15:36:24.538Z,6.40
2023-04-23T15:38:52.264Z,6.50
2023-04-23T15:41:21.583Z,6.40
2023-04-23T15:43:50.394Z,6.20
2023-04-23T15:46:18.302Z,5.90
2023-04-23T15:48:46.077Z,6.97
2023-04-23T15:51:13.888Z,6.13
2023-04-23T15:53:41.680Z,8.33
2023-04-23T15:56:09.369Z,6.00
2023-04-23T15:58:38.456Z,6.63
2023-04-23T16:01:07.620Z,5.93
2023-04-23T16:03:35.522Z,6.50
2023-04-23T16:06:04.509Z,6.43
2023-04-23T16:08:32.603Z,6.33
2023-04-23T16:11:00.479Z,6.77
2023-04-23T16:13:28.923Z,6.20
2023-04-23T16:15:58.145Z,6.70
2023-04-23T16:18:25.910Z,5.90
2023-04-23T16:20:53.663Z,6.90
2023-04-23T16:23:21.479Z,7.40
2023-04-23T16:25:49.610Z,6.10
2023-04-23T16:28:17.632Z,7.30
2023-04-23T16:30:45.583Z,7.93
2023-04-23T16:33:14.778Z,7.63
2023-04-23T16:35:42.564Z,6.20
2023-04-23T16:38:11.226Z,7.23
2023-04-23T16:40:39.719Z,7.70
2023-04-23T16:43:07.427Z,8.33
2023-04-23T16:45:35.384Z,18.50
2023-04-23T16:48:03.080Z,6.67
2023-04-23T16:50:32.239Z,7.60
2023-04-23T16:53:03.009Z,8.17
2023-04-23T16:55:30.800Z,7.47
2023-04-23T16:57:58.520Z,6.90
2023-04-23T17:00:26.415Z,7.10
2023-04-23T17:02:54.289Z,7.17
2023-04-23T17:05:24.352Z,7.63
2023-04-23T17:07:53.637Z,9.50
2023-04-23T17:10:21.411Z,7.17
2023-04-23T17:12:50.169Z,10.70
2023-04-23T17:15:18.132Z,11.33
2023-04-23T17:17:45.863Z,7.87
2023-04-23T17:20:13.579Z,6.83
2023-04-23T17:22:41.499Z,8.13
2023-04-23T17:25:11.055Z,8.20
2023-04-23T17:27:38.878Z,10.17
2023-04-23T17:30:07.944Z,7.10
2023-04-23T17:32:35.825Z,8.50
2023-04-23T17:35:10.328Z,8.17
2023-04-23T17:37:39.168Z,7.13
2023-04-23T17:40:09.603Z,7.97
2023-04-23T17:42:38.672Z,7.60
2023-04-23T17:45:07.298Z,12.20
2023-04-23T17:47:35.242Z,8.43
2023-04-23T17:50:02.984Z,8.97
2023-04-23T17:52:30.816Z,10.20
2023-04-23T17:54:59.797Z,8.47
2023-04-23T17:57:27.543Z,8.67
2023-04-23T17:59:59.143Z,8.13
2023-04-23T18:02:26.990Z,8.47
2023-04-23T18:04:55.493Z,8.40
2023-04-23T18:07:23.335Z,8.30
2023-04-23T18:09:51.148Z,10.87
2023-04-23T18:12:18.874Z,7.27
2023-04-23T18:14:46.586Z,9.03
2023-04-23T18:17:17.412Z,8.40
2023-04-23T18:19:45.146Z,10.50
2023-04-23T18:22:12.881Z,8.60
2023-04-23T18:24:40.680Z,9.60
2023-04-23T18:27:12.369Z,9.50
2023-04-23T18:29:42.571Z,8.73
2023-04-23T18:32:13.959Z,8.20
2023-04-23T18:34:45.255Z,9.27
2023-04-23T18:37:33.137Z,8.10
2023-04-23T18:40:01.418Z,8.10
2023-04-23T18:42:29.180Z,7.33
2023-04-23T18:44:57.086Z,9.40
2023-04-23T18:47:31.828Z,8.17
2023-04-23T18:50:05.285Z,14.63
2023-04-23T18:52:33.019Z,7.83
2023-04-23T18:55:00.738Z,11.30
2023-04-23T18:57:28.662Z,13.30
2023-04-23T18:59:56.388Z,8.83
2023-04-23T19:02:34.570Z,9.40
2023-04-23T19:05:04.892Z,8.27
2023-04-23T19:07:33.508Z,9.10
2023-04-23T19:10:01.287Z,8.70
2023-04-23T19:12:29.152Z,8.93
2023-04-23T19:14:56.855Z,7.27
2023-04-23T19:17:24.701Z,10.37
2023-04-23T19:19:52.432Z,8.27
2023-04-23T19:22:23.916Z,12.00
2023-04-23T19:24:52.008Z,9.37
2023-04-23T19:27:20.183Z,8.90
2023-04-23T19:29:48.363Z,8.97
2023-04-23T19:32:16.105Z,9.83
2023-04-23T19:34:45.557Z,10.47
2023-04-23T19:37:13.264Z,8.50
2023-04-23T19:39:42.559Z,7.47
2023-04-23T19:42:11.219Z,10.10
2023-04-23T19:44:38.938Z,9.23
2023-04-23T19:47:06.737Z,9.10
2023-04-23T19:49:35.262Z,7.10
2023-04-23T19:52:04.777Z,9.30
2023-04-23T19:54:32.645Z,8.80
2023-04-23T19:57:02.024Z,7.60
2023-04-23T19:59:29.721Z,9.20
2023-04-23T20:01:57.432Z,7.70
2023-04-23T20:04:25.277Z,8.77
2023-04-23T20:06:53.009Z,7.30
2023-04-23T20:09:21.822Z,11.43
2023-04-23T20:11:49.551Z,7.53
2023-04-23T20:14:18.742Z,9.37
2023-04-23T20:16:47.276Z,8.27
2023-04-23T20:19:15.616Z,8.30
2023-04-23T20:21:43.659Z,7.47
2023-04-23T20:24:12.109Z,8.30
2023-04-23T20:26:41.864Z,9.73
2023-04-23T20:29:09.947Z,10.43
2023-04-23T20:31:39.149Z,7.13
2023-04-23T20:34:06.903Z,9.10
2023-04-23T20:36:35.735Z,6.77
2023-04-23T20:39:04.952Z,7.63
2023-04-23T20:41:34.353Z,7.13
2023-04-23T20:44:03.086Z,6.90
2023-04-23T20:46:32.565Z,7.10
2023-04-23T20:49:03.177Z,8.53
2023-04-23T20:51:33.134Z,7.87
2023-04-23T20:54:01.473Z,7.40
2023-04-23T20:56:29.651Z,7.03
2023-04-23T20:58:58.584Z,7.93
2023-04-23T21:01:26.508Z,7.60
2023-04-23T21:03:54.788Z,8.00
2023-04-23T21:06:24.031Z,6.73
2023-04-23T21:08:51.781Z,6.67
2023-04-23T21:11:21.125Z,7.20
2023-04-23T21:13:48.883Z,7.80
2023-04-23T21:16:16.776Z,6.97
2023-04-23T21:18:44.773Z,6.67
2023-04-23T21:21:12.546Z,12.03
2023-04-23T21:23:42.744Z,8.47
2023-04-23T21:26:10.826Z,9.30
2023-04-23T21:28:38.541Z,7.07
2023-04-23T21:31:14.574Z,10.10
2023-04-23T21:33:42.286Z,6.07
2023-04-23T21:36:09.991Z,5.70
2023-04-23T21:38:37.757Z,5.87
2023-04-23T21:41:07.552Z,6.33
2023-04-23T21:43:35.597Z,6.33
2023-04-23T21:46:03.553Z,5.60
2023-04-23T21:48:31.955Z,6.17
2023-04-23T21:50:59.943Z,6.77
2023-04-23T21:53:27.645Z,6.57
2023-04-23T21:55:55.515Z,5.93
2023-04-23T21:58:24.555Z,6.97
2023-04-23T22:00:52.716Z,12.60
2023-04-23T22:03:37.805Z,6.80
2023-04-23T22:06:08.070Z,5.80
2023-04-23T22:08:37.815Z,5.93
2023-04-23T22:11:06.821Z,14.10
2023-04-23T22:13:36.519Z,5.73
2023-04-23T22:16:08.654Z,6.50
2023-04-23T22:18:41.547Z,7.73
2023-04-23T22:21:09.280Z,5.43
2023-04-23T22:23:36.962Z,6.20
2023-04-23T22:26:04.796Z,8.23
2023-04-23T22:28:33.590Z,7.00
2023-04-23T22:31:02.645Z,7.13
2023-04-23T22:33:30.453Z,6.00
2023-04-23T22:35:59.019Z,6.30
2023-04-23T22:38:26.828Z,5.97
2023-04-23T22:40:54.640Z,6.73
2023-04-23T22:43:22.575Z,5.90
2023-04-23T22:45:50.368Z,7.10
2023-04-23T22:48:19.490Z,6.77
2023-04-23T22:50:47.195Z,5.90
2023-04-23T22:53:14.904Z,6.17
2023-04-23T22:55:42.670Z,7.00
2023-04-23T22:58:10.421Z,6.13
2023-04-23T23:00:38.148Z,5.73
2023-04-23T23:03:06.059Z,5.50
2023-04-23T23:05:35.399Z,7.03
2023-04-23T23:08:03.121Z,5.70
2023-04-23T23:10:31.644Z,5.80
2023-04-23T23:12:59.626Z,5.93
2023-04-23T23:15:27.315Z,6.07
2023-04-23T23:17:55.053Z,6.40
2023-04-23T23:20:22.808Z,5.57
2023-04-23T23:22:51.908Z,7.20
2023-04-23T23:25:19.766Z,5.20
2023-04-23T23:27:47.599Z,5.30
2023-04-23T23:30:15.569Z,6.10
2023-04-23T23:32:43.324Z,5.67
2023-04-23T23:35:11.485Z,6.80
2023-04-23T23:37:39.318Z,7.37
2023-04-23T23:40:10.587Z,6.20
2023-04-23T23:42:38.388Z,5.37
2023-04-23T23:45:07.092Z,5.90
2023-04-23T23:47:35.025Z,6.73
2023-04-23T23:50:03.324Z,6.47
2023-04-23T23:52:31.050Z,6.53
2023-04-23T23:54:58.747Z,6.07
2023-04-23T23:57:27.999Z,5.30
2023-04-23T23:59:56.061Z,5.30
